createdAt,value
2022-08-19T00:05:08.807Z,6.80
2022-08-19T00:15:09.071Z,11.30
2022-08-19T00:25:09.115Z,11.90
2022-08-19T00:35:09.423Z,10.20
2022-08-19T00:45:13.987Z,13.20
2022-08-19T00:55:09.627Z,17.10
2022-08-19T01:05:09.950Z,12.80
2022-08-19T01:15:09.986Z,13.20
2022-08-19T01:25:15.083Z,20.80
2022-08-19T01:35:11.357Z,22.10
2022-08-19T01:45:10.647Z,19.30
2022-08-19T01:55:10.678Z,17.70
2022-08-19T02:05:11.329Z,15.10
2022-08-19T02:15:11.028Z,18.00
2022-08-19T02:25:11.348Z,22.00
2022-08-19T02:35:12.135Z,24.00
2022-08-19T02:45:11.598Z,23.70
2022-08-19T02:55:11.606Z,26.10
2022-08-19T03:05:11.940Z,24.90
2022-08-19T03:15:11.956Z,21.30
2022-08-19T03:25:12.473Z,17.00
2022-08-19T03:35:12.605Z,20.60
2022-08-19T03:45:12.634Z,26.00
2022-08-19T03:55:12.697Z,20.40
2022-08-19T04:05:13.005Z,17.10
2022-08-19T04:15:13.045Z,17.10
2022-08-19T04:25:13.275Z,17.70
2022-08-19T04:35:17.416Z,19.60
2022-08-19T04:45:14.384Z,16.20
2022-08-19T04:55:13.722Z,15.70
2022-08-19T05:05:13.781Z,18.70
2022-08-19T05:15:14.118Z,18.00
2022-08-19T05:25:14.342Z,25.00
2022-08-19T05:35:16.833Z,22.60
2022-08-19T05:45:14.463Z,20.10
2022-08-19T05:55:14.814Z,19.30
2022-08-19T06:05:14.855Z,24.60
2022-08-19T06:15:15.169Z,19.60
2022-08-19T06:25:15.605Z,21.80
2022-08-19T06:35:15.515Z,17.60
2022-08-19T06:45:15.539Z,20.40
2022-08-19T06:55:15.901Z,20.80
2022-08-19T07:05:16.397Z,18.80
2022-08-19T07:15:16.313Z,12.50
2022-08-19T07:25:16.345Z,13.70
2022-08-19T07:35:16.556Z,17.00
2022-08-19T07:45:16.593Z,18.40
2022-08-19T07:55:40.310Z,13.70
2022-08-19T08:05:17.902Z,14.50
2022-08-19T08:15:17.151Z,11.50
2022-08-19T08:25:24.382Z,12.50
2022-08-19T08:35:17.871Z,14.10
2022-08-19T08:45:17.867Z,14.40
2022-08-19T08:55:17.921Z,15.00
2022-08-19T09:05:22.024Z,13.50
2022-08-19T09:15:18.428Z,16.90
2022-08-19T09:25:26.754Z,16.90
2022-08-19T09:35:19.751Z,18.30
2022-08-19T09:45:23.549Z,18.20
2022-08-19T09:55:19.170Z,14.70
2022-08-19T10:05:26.604Z,15.10
2022-08-19T10:15:20.559Z,15.80
2022-08-19T10:25:20.828Z,14.20
2022-08-19T10:35:21.897Z,12.20
2022-08-19T10:45:20.463Z,10.60
2022-08-19T10:55:20.355Z,7.60
2022-08-19T11:05:20.484Z,4.60
2022-08-19T11:15:20.456Z,4.70
2022-08-19T11:25:20.779Z,3.10
2022-08-19T11:35:20.954Z,4.00
2022-08-19T11:45:21.236Z,7.10
2022-08-19T11:55:21.317Z,2.00
2022-08-19T12:05:21.396Z,1.60
2022-08-19T12:15:21.413Z,1.90
2022-08-19T12:25:21.723Z,5.30
2022-08-19T12:35:22.107Z,2.30
2022-08-19T12:45:22.083Z,1.70
2022-08-19T12:55:22.116Z,1.70
2022-08-19T13:05:22.424Z,1.20
2022-08-19T13:15:23.945Z,1.20
2022-08-19T13:25:22.651Z,1.80
2022-08-19T13:35:22.681Z,1.50
2022-08-19T13:45:23.063Z,2.80
2022-08-19T13:55:24.974Z,1.40
2022-08-19T14:05:23.380Z,2.00
2022-08-19T14:15:23.408Z,1.90
2022-08-19T14:25:23.724Z,3.20
2022-08-19T14:35:23.749Z,2.10
2022-08-19T14:45:24.069Z,3.70
2022-08-19T14:55:24.121Z,3.10
2022-08-19T15:05:24.435Z,3.10
2022-08-19T15:15:24.448Z,4.00
2022-08-19T15:25:24.778Z,5.60
2022-08-19T15:35:24.808Z,4.70
2022-08-19T15:45:28.394Z,3.90
2022-08-19T15:55:33.624Z,5.60
2022-08-19T16:05:26.458Z,5.00
2022-08-19T16:15:25.745Z,5.30
2022-08-19T16:25:25.766Z,4.50
2022-08-19T16:35:26.104Z,5.50
2022-08-19T16:45:26.135Z,6.10
2022-08-19T16:55:26.454Z,6.30
2022-08-19T17:05:26.510Z,6.10
2022-08-19T17:15:26.810Z,7.10
2022-08-19T17:25:26.820Z,5.30
2022-08-19T17:35:27.159Z,7.40
2022-08-19T17:45:27.182Z,6.30
2022-08-19T17:55:27.497Z,8.80
2022-08-19T18:05:27.532Z,9.10
2022-08-19T18:15:27.851Z,9.10
2022-08-19T18:25:27.884Z,6.80
2022-08-19T18:35:28.200Z,4.70
2022-08-19T18:45:28.242Z,4.60
2022-08-19T18:55:28.569Z,5.20
2022-08-19T19:05:28.618Z,6.20
2022-08-19T19:15:28.903Z,5.60
2022-08-19T19:25:29.019Z,5.20
2022-08-19T19:35:30.086Z,5.90
2022-08-19T19:45:29.457Z,6.80
2022-08-19T19:55:29.517Z,3.40
2022-08-19T20:05:29.984Z,3.00
2022-08-19T20:15:29.816Z,4.70
2022-08-19T20:25:30.124Z,7.20
2022-08-19T20:35:30.156Z,9.20
2022-08-19T20:45:32.935Z,12.20
2022-08-19T20:55:30.627Z,16.80
2022-08-19T21:05:30.923Z,20.50
2022-08-19T21:15:30.965Z,23.40
2022-08-19T21:25:31.274Z,21.30
2022-08-19T21:35:31.328Z,24.50
2022-08-19T21:45:31.637Z,19.70
2022-08-19T21:55:31.654Z,19.40
2022-08-19T22:05:31.993Z,17.20
2022-08-19T22:15:32.014Z,13.40
2022-08-19T22:25:32.386Z,8.80
2022-08-19T22:35:32.399Z,8.90
2022-08-19T22:45:32.670Z,7.00
2022-08-19T22:55:32.705Z,6.90
2022-08-19T23:05:33.022Z,5.70
2022-08-19T23:15:33.099Z,4.80
2022-08-19T23:25:33.384Z,4.50
2022-08-19T23:35:33.420Z,5.80
2022-08-19T23:45:33.726Z,7.20
2022-08-19T23:55:33.747Z,5.40
